Time;durP1;ratioP1;P1;durP2;ratioP2;P2;SDS_P1;SDS_P2;PMS_P1;PMS_P2;Temp;Humidity;BMP_temperature;BMP_pressure;BME280_temperature;BME280_humidity;BME280_pressure;Samples;Min_cycle;Max_cycle;Signal;HPM_P1;HPM_P2
2022/06/19 00:02:26;;;;;;;8.70;3.35;;;;;;;22.10;54.90;100191.06;5041993;28;20030;-72
2022/06/19 00:04:54;;;;;;;9.48;3.80;;;;;;;22.10;55.23;100187.53;5045443;28;20040;-72
2022/06/19 00:07:20;;;;;;;10.70;4.13;;;;;;;22.02;55.29;100182.59;5042740;28;20852;-72
2022/06/19 00:09:46;;;;;;;8.50;4.38;;;;;;;21.90;56.37;100186.00;5043947;28;20044;-71
2022/06/19 00:12:12;;;;;;;7.95;3.58;;;;;;;21.90;55.68;100191.38;5043117;28;20045;-72
2022/06/19 00:14:37;;;;;;;11.05;4.72;;;;;;;21.88;55.68;100191.50;5042589;28;20450;-72
2022/06/19 00:17:05;;;;;;;12.82;4.85;;;;;;;21.88;55.67;100188.81;5045161;28;20041;-72
2022/06/19 00:19:30;;;;;;;8.38;3.72;;;;;;;21.86;56.01;100171.91;5038656;28;20427;-71
2022/06/19 00:21:55;;;;;;;10.23;4.32;;;;;;;21.85;55.14;100178.25;5043720;28;20048;-72
2022/06/19 00:24:21;;;;;;;10.77;4.25;;;;;;;21.82;55.18;100169.47;5043054;28;20069;-72
2022/06/19 00:26:46;;;;;;;13.10;4.88;;;;;;;21.81;55.65;100167.75;5041249;28;20067;-71
2022/06/19 00:29:12;;;;;;;12.25;4.68;;;;;;;21.80;55.33;100160.66;5050496;28;20041;-72
2022/06/19 00:31:37;;;;;;;10.48;4.60;;;;;;;21.79;56.05;100170.53;5041147;28;20504;-71
2022/06/19 00:34:03;;;;;;;13.18;4.38;;;;;;;21.71;56.24;100170.09;5044876;28;20060;-72
2022/06/19 00:36:29;;;;;;;8.85;4.18;;;;;;;21.65;55.97;100163.28;5042309;28;20028;-72
2022/06/19 00:38:55;;;;;;;11.90;3.95;;;;;;;21.59;55.78;100160.09;5043438;28;20399;-72
2022/06/19 00:41:21;;;;;;;7.80;3.75;;;;;;;21.55;55.94;100158.53;5042715;28;20040;-71
2022/06/19 00:44:05;;;;;;;12.75;4.03;;;;;;;21.45;57.54;100159.03;5042139;28;20404;-71
2022/06/19 00:46:47;;;;;;;17.75;5.57;;;;;;;21.31;57.32;100164.31;5041179;28;20045;-71
2022/06/19 00:49:17;;;;;;;;;;;;;;;21.26;57.77;100165.53;5039324;28;20086;-72
2022/06/19 00:51:43;;;;;;;12.30;4.30;;;;;;;21.24;57.32;100155.72;5041975;28;19913;-71
2022/06/19 00:54:11;;;;;;;10.77;4.53;;;;;;;21.22;57.13;100156.75;5043985;28;20497;-72
2022/06/19 00:56:37;;;;;;;8.45;3.90;;;;;;;21.23;56.57;100150.47;5040743;28;20412;-72
2022/06/19 00:59:05;;;;;;;12.68;4.40;;;;;;;21.22;56.91;100152.28;5043816;28;20044;-71
2022/06/19 01:01:31;;;;;;;10.10;4.72;;;;;;;21.21;57.28;100141.63;5041952;28;20490;-72
2022/06/19 01:04:13;;;;;;;10.48;4.22;;;;;;;21.23;57.52;100139.72;5042131;28;20044;-72
2022/06/19 01:06:38;;;;;;;11.05;4.65;;;;;;;21.17;57.07;100137.41;5038282;28;20042;-71
2022/06/19 01:09:04;;;;;;;10.38;4.53;;;;;;;21.17;57.08;100137.41;5036535;28;20037;-71
2022/06/19 01:11:37;;;;;;;17.60;4.43;;;;;;;21.17;57.18;100134.72;5039292;28;20029;-72
2022/06/19 01:14:07;;;;;;;10.77;4.20;;;;;;;21.18;56.95;100125.69;5036981;28;20038;-71
2022/06/19 01:16:33;;;;;;;12.75;4.88;;;;;;;21.14;57.36;100121.44;5042103;28;20076;-72
2022/06/19 01:18:59;;;;;;;10.98;4.32;;;;;;;21.08;57.98;100119.13;5042016;28;20115;-72
2022/06/19 01:22:02;;;;;;;12.50;4.82;;;;;;;21.00;58.58;100124.91;5033090;28;20172;-72
2022/06/19 01:24:43;;;;;;;10.23;4.72;;;;;;;20.90;58.40;100123.69;5041281;28;20044;-72
2022/06/19 01:28:45;;;;;;;8.52;4.28;;;;;;;20.89;58.15;100104.06;5037595;28;20049;-71
2022/06/19 01:29:58;;;;;;;10.60;4.80;;;;;;;20.88;57.99;100096.97;5040484;28;20045;-71
2022/06/19 01:32:24;;;;;;;12.68;4.65;;;;;;;20.90;57.72;100097.72;5042885;28;20040;-72
2022/06/19 01:34:51;;;;;;;8.05;3.70;;;;;;;20.86;58.57;100084.59;5040100;28;20492;-71
2022/06/19 01:37:21;;;;;;;11.00;4.22;;;;;;;20.81;58.16;100082.16;5041888;28;20143;-71
2022/06/19 01:39:51;;;;;;;10.32;3.60;;;;;;;20.84;58.07;100076.63;5043478;28;20507;-71
2022/06/19 01:42:16;;;;;;;8.63;3.92;;;;;;;20.82;58.00;100073.16;5036045;28;20041;-72
2022/06/19 01:44:44;;;;;;;8.55;3.67;;;;;;;20.78;58.18;100071.63;5042858;28;20284;-72
2022/06/19 01:47:11;;;;;;;12.52;4.35;;;;;;;20.76;59.01;100068.16;5041813;28;20029;-72
2022/06/19 01:49:38;;;;;;;8.77;4.15;;;;;;;20.74;58.52;100070.03;5041003;28;20041;-72
2022/06/19 01:52:05;;;;;;;7.45;4.15;;;;;;;20.73;58.31;100071.00;5042842;28;20041;-72
2022/06/19 01:54:39;;;;;;;6.65;3.33;;;;;;;20.72;58.37;100063.88;5040477;28;20168;-71
2022/06/19 01:57:09;;;;;;;11.80;4.47;;;;;;;20.66;58.64;100065.09;5036294;28;20060;-72
2022/06/19 01:59:36;;;;;;;10.75;4.35;;;;;;;20.65;59.09;100070.56;5042994;28;20032;-71
2022/06/19 02:02:04;;;;;;;7.95;3.67;;;;;;;20.69;58.77;100066.75;5034366;28;20033;-71
2022/06/19 02:04:31;;;;;;;8.13;4.07;;;;;;;20.71;58.92;100059.50;5038473;28;20037;-71
2022/06/19 02:07:01;;;;;;;8.60;4.30;;;;;;;20.74;58.68;100057.50;5041360;28;20411;-72
2022/06/19 02:09:27;;;;;;;10.75;4.70;;;;;;;20.72;58.96;100053.16;5043419;28;20033;-71
2022/06/19 02:11:53;;;;;;;10.90;3.65;;;;;;;20.67;58.87;100042.72;5038895;28;20558;-72
2022/06/19 02:14:20;;;;;;;10.63;4.88;;;;;;;20.56;59.29;100051.31;5041279;28;20716;-71
2022/06/19 02:16:48;;;;;;;9.10;3.65;;;;;;;20.43;59.96;100033.31;5041546;28;20044;-72
2022/06/19 02:19:14;;;;;;;9.32;4.38;;;;;;;20.43;59.74;100025.25;5041903;28;20045;-71
2022/06/19 02:21:43;;;;;;;11.05;4.85;;;;;;;20.43;59.94;100014.53;5039340;28;20040;-71
2022/06/19 02:24:12;;;;;;;10.18;4.15;;;;;;;20.45;59.66;100007.28;5036252;28;20471;-71
2022/06/19 02:26:39;;;;;;;9.35;4.13;;;;;;;20.47;59.43;100003.56;5041107;28;20037;-71
2022/06/19 02:29:09;;;;;;;7.90;3.90;;;;;;;20.51;59.42;100006.94;5041348;28;20480;-72
2022/06/19 02:31:37;;;;;;;9.40;3.97;;;;;;;20.52;59.17;100016.72;5038928;28;20041;-71
2022/06/19 02:34:07;;;;;;;11.35;4.03;;;;;;;20.47;59.35;100014.28;5036440;28;20038;-71
2022/06/19 02:36:37;;;;;;;10.95;3.90;;;;;;;20.45;59.39;100009.97;5041267;28;20499;-72
2022/06/19 02:39:36;;;;;;;7.43;4.10;;;;;;;20.41;60.60;99993.19;5042119;28;20081;-71
2022/06/19 02:42:19;;;;;;;9.73;4.10;;;;;;;20.44;59.96;99990.34;5035162;28;20037;-72
2022/06/19 02:44:46;;;;;;;9.40;4.53;;;;;;;20.45;59.28;99984.03;5039097;28;20087;-71
2022/06/19 02:47:11;;;;;;;14.13;4.72;;;;;;;20.45;59.70;99991.19;5035982;28;20117;-72
2022/06/19 02:49:37;;;;;;;8.95;3.70;;;;;;;20.39;59.48;99988.88;5041744;28;20591;-71
2022/06/19 02:52:05;;;;;;;9.80;4.15;;;;;;;20.36;59.96;99987.22;5040279;28;20049;-72
2022/06/19 02:54:31;;;;;;;9.95;3.80;;;;;;;20.34;59.68;99991.81;5038894;28;20049;-71
2022/06/19 02:56:57;;;;;;;11.82;4.05;;;;;;;20.32;60.03;99991.00;5042070;28;20037;-71
2022/06/19 02:59:22;;;;;;;11.55;4.65;;;;;;;20.27;60.62;99985.03;5039191;28;20045;-72
2022/06/19 03:01:48;;;;;;;15.10;4.13;;;;;;;20.27;60.13;99985.03;5041538;28;20055;-72
2022/06/19 03:04:18;;;;;;;10.60;4.93;;;;;;;20.26;60.49;99983.31;5040241;28;20410;-71
2022/06/19 03:06:44;;;;;;;10.48;3.88;;;;;;;20.25;60.17;99978.91;5040279;28;20044;-71
2022/06/19 03:09:10;;;;;;;10.15;4.35;;;;;;;20.27;60.15;99979.69;5042095;28;20137;-72
2022/06/19 03:11:35;;;;;;;12.80;4.03;;;;;;;20.23;60.42;99976.31;5037191;28;20120;-71
2022/06/19 03:14:00;;;;;;;8.63;3.58;;;;;;;20.18;60.55;99974.84;5041959;28;20029;-71
2022/06/19 03:16:26;;;;;;;11.48;4.38;;;;;;;20.21;61.17;99975.53;5040101;28;20400;-72
2022/06/19 03:18:52;;;;;;;9.98;4.55;;;;;;;20.23;60.66;99984.34;5040875;28;20580;-71
2022/06/19 03:21:18;;;;;;;9.68;4.22;;;;;;;20.24;61.11;99977.19;5040557;28;20038;-72
2022/06/19 03:23:44;;;;;;;9.02;3.53;;;;;;;20.28;60.63;99976.06;5039475;28;20053;-71
2022/06/19 03:26:09;;;;;;;8.82;4.30;;;;;;;20.33;60.46;99971.28;5042277;28;20037;-72
2022/06/19 03:28:34;;;;;;;10.00;4.72;;;;;;;20.34;60.47;99970.38;5038768;28;20065;-71
2022/06/19 03:31:00;;;;;;;9.05;4.13;;;;;;;20.35;61.16;99962.22;5040922;28;20037;-72
2022/06/19 03:33:25;;;;;;;8.30;4.13;;;;;;;20.42;60.95;99957.41;5043464;28;20030;-71
2022/06/19 03:35:54;;;;;;;14.50;4.38;;;;;;;20.51;60.21;99954.22;5044170;28;20036;-71
2022/06/19 03:38:20;;;;;;;10.00;3.67;;;;;;;20.63;59.10;99946.44;5045450;28;20427;-72
2022/06/19 03:40:45;;;;;;;14.07;4.50;;;;;;;20.70;59.10;99940.66;5039058;28;20036;-71
2022/06/19 03:43:11;;;;;;;8.77;4.72;;;;;;;20.73;58.80;99947.66;5042167;28;20037;-71
2022/06/19 03:45:36;;;;;;;11.90;4.18;;;;;;;20.76;59.54;99944.78;5044875;28;20029;-71
2022/06/19 03:48:02;;;;;;;10.60;3.97;;;;;;;20.79;59.57;99933.88;5043988;28;20419;-71
2022/06/19 03:50:34;;;;;;;9.35;4.47;;;;;;;20.63;60.43;99935.72;5042884;28;20559;-72
2022/06/19 03:53:00;;;;;;;9.88;4.57;;;;;;;20.60;60.89;99938.59;5028315;28;20038;-71
2022/06/19 03:55:25;;;;;;;10.90;4.38;;;;;;;20.63;60.64;99933.03;5034603;28;20048;-71
2022/06/19 03:57:50;;;;;;;12.52;4.32;;;;;;;20.69;60.44;99932.69;5037067;28;20049;-71
2022/06/19 04:00:18;;;;;;;8.70;3.92;;;;;;;20.80;60.52;99935.59;5043792;28;20033;-71
2022/06/19 04:02:44;;;;;;;14.38;4.20;;;;;;;20.95;59.88;99929.34;5042441;28;20037;-71
2022/06/19 04:05:10;;;;;;;11.55;4.03;;;;;;;21.02;59.60;99928.03;5045147;28;20063;-71
2022/06/19 04:07:43;;;;;;;9.70;4.03;;;;;;;21.17;59.58;99928.09;5038150;28;20045;-72
2022/06/19 04:10:09;;;;;;;10.05;4.20;;;;;;;21.28;59.16;99920.25;5043985;28;20029;-71
2022/06/19 04:12:34;;;;;;;12.05;3.72;;;;;;;21.42;59.05;99922.13;5042201;28;20103;-71
2022/06/19 04:15:00;;;;;;;7.68;3.75;;;;;;;21.55;59.01;99922.25;5042509;28;20484;-72
2022/06/19 04:17:25;;;;;;;11.93;4.63;;;;;;;21.61;59.36;99916.50;5045117;28;20545;-71
2022/06/19 04:19:50;;;;;;;13.98;4.03;;;;;;;21.57;59.54;99923.03;5042067;28;20045;-71
2022/06/19 04:22:16;;;;;;;9.73;3.80;;;;;;;21.56;59.18;99926.66;5043719;28;20132;-71
2022/06/19 04:24:41;;;;;;;8.63;4.28;;;;;;;21.62;59.00;99928.97;5043055;28;20029;-72
2022/06/19 04:27:06;;;;;;;9.63;4.15;;;;;;;21.66;59.27;99931.34;5038932;28;20534;-72
2022/06/19 04:29:32;;;;;;;8.45;3.63;;;;;;;21.73;59.45;99923.81;5044153;28;20048;-71
2022/06/19 04:31:57;;;;;;;11.13;4.07;;;;;;;21.86;58.84;99930.13;5041329;28;20049;-72
2022/06/19 04:34:23;;;;;;;9.07;3.53;;;;;;;21.97;58.91;99924.09;5044891;28;20052;-71
2022/06/19 04:36:48;;;;;;;9.32;3.80;;;;;;;22.10;58.89;99913.41;5041970;28;20080;-72
2022/06/19 04:39:13;;;;;;;10.55;3.83;;;;;;;22.22;58.16;99911.81;5043797;28;20033;-72
2022/06/19 04:41:43;;;;;;;9.93;3.50;;;;;;;22.38;58.57;99909.00;5042371;28;20076;-72
2022/06/19 04:44:12;;;;;;;11.52;4.20;;;;;;;22.56;57.02;99910.50;5039396;28;20042;-71
2022/06/19 04:46:37;;;;;;;11.40;3.80;;;;;;;22.69;56.95;99915.94;5044696;28;20503;-72
2022/06/19 04:49:03;;;;;;;9.07;3.75;;;;;;;22.85;55.96;99911.25;5041658;28;20025;-72
2022/06/19 04:51:28;;;;;;;11.98;3.80;;;;;;;22.99;55.85;99907.66;5042784;28;20033;-72
2022/06/19 04:53:54;;;;;;;9.88;3.60;;;;;;;23.14;55.54;99909.28;5042873;28;20491;-72
2022/06/19 04:56:21;;;;;;;13.70;3.92;;;;;;;23.29;56.28;99909.19;5042326;28;20491;-71
2022/06/19 04:58:46;;;;;;;9.50;3.67;;;;;;;23.39;55.58;99904.91;5043891;28;20111;-71
2022/06/19 05:01:21;;;;;;;13.38;3.90;;;;;;;23.54;55.20;99898.44;5040549;28;20034;-72
2022/06/19 05:03:46;;;;;;;9.40;3.40;;;;;;;23.70;54.96;99897.38;5041855;28;20064;-72
2022/06/19 05:06:12;;;;;;;8.68;3.50;;;;;;;23.87;54.63;99889.00;5043284;28;20056;-72
2022/06/19 05:08:37;;;;;;;12.40;3.97;;;;;;;23.99;54.74;99888.09;5041347;28;20502;-72
2022/06/19 05:11:02;;;;;;;13.93;3.90;;;;;;;24.17;53.86;99883.22;5043681;28;20478;-72
2022/06/19 05:13:28;;;;;;;13.18;3.70;;;;;;;24.33;52.70;99882.94;5040705;28;20504;-72
2022/06/19 05:16:13;;;;;;;15.93;3.58;;;;;;;24.52;51.81;99885.16;5043434;28;20109;-72
2022/06/19 05:18:39;;;;;;;9.93;3.00;;;;;;;24.69;51.09;99868.59;5037264;28;20099;-72
2022/06/19 05:21:05;;;;;;;13.18;3.20;;;;;;;24.88;50.48;99875.28;5042749;28;20028;-72
2022/06/19 05:23:35;;;;;;;10.98;3.70;;;;;;;25.09;49.30;99873.63;5042048;28;20407;-72
2022/06/19 05:26:04;;;;;;;11.40;3.38;;;;;;;25.28;48.79;99883.91;5041202;28;20037;-72
2022/06/19 05:28:30;;;;;;;12.48;3.38;;;;;;;25.49;47.69;99875.97;5040597;28;20079;-72
2022/06/19 05:30:58;;;;;;;15.15;3.35;;;;;;;25.68;47.33;99869.97;5040623;28;20052;-72
2022/06/19 05:33:24;;;;;;;10.45;3.33;;;;;;;25.85;46.45;99873.19;5042043;28;20080;-72
2022/06/19 05:35:49;;;;;;;8.73;2.80;;;;;;;25.98;46.24;99865.81;5042731;28;20060;-72
2022/06/19 05:38:14;;;;;;;9.88;2.92;;;;;;;26.14;45.76;99865.41;5040837;28;20037;-72
2022/06/19 05:40:40;;;;;;;9.85;2.80;;;;;;;26.27;45.27;99859.88;5043732;28;20040;-72
2022/06/19 05:43:07;;;;;;;16.77;3.75;;;;;;;26.41;44.66;99856.91;5039584;28;20046;-72
2022/06/19 05:45:32;;;;;;;11.75;3.45;;;;;;;26.52;44.37;99856.88;5042621;28;20044;-72
2022/06/19 05:47:57;;;;;;;10.43;3.17;;;;;;;26.64;44.46;99846.88;5038062;28;20068;-72
2022/06/19 05:50:23;;;;;;;12.15;3.40;;;;;;;26.78;44.08;99841.16;5038066;28;20131;-72
2022/06/19 05:52:48;;;;;;;9.68;2.90;;;;;;;26.90;43.97;99841.94;5042057;28;20040;-72
2022/06/19 05:55:13;;;;;;;9.00;2.85;;;;;;;27.00;43.63;99848.31;5039877;28;20029;-72
2022/06/19 05:57:39;;;;;;;14.05;3.53;;;;;;;27.09;43.91;99842.13;5040439;28;20057;-72
2022/06/19 06:00:05;;;;;;;10.20;3.00;;;;;;;27.19;43.01;99842.19;5040472;28;20057;-72
2022/06/19 06:02:37;;;;;;;9.25;3.20;;;;;;;27.34;42.76;99836.44;5040658;28;20523;-72
2022/06/19 06:05:04;;;;;;;13.50;3.38;;;;;;;27.50;42.38;99845.78;5042607;28;20037;-72
2022/06/19 06:07:30;;;;;;;9.75;2.97;;;;;;;27.62;41.88;99838.44;5039762;28;20045;-72
2022/06/19 06:09:55;;;;;;;9.20;3.60;;;;;;;27.72;41.70;99844.78;5043066;28;20036;-72
2022/06/19 06:12:20;;;;;;;11.82;3.30;;;;;;;27.84;41.94;99836.56;5039943;28;20048;-72
2022/06/19 06:14:46;;;;;;;8.35;2.67;;;;;;;27.95;41.09;99837.31;5034941;28;20033;-72
2022/06/19 06:17:11;;;;;;;13.90;3.22;;;;;;;28.05;41.33;99842.75;5041621;28;20033;-72
2022/06/19 06:19:37;;;;;;;13.63;3.92;;;;;;;28.10;40.63;99847.78;5040496;28;20033;-72
2022/06/19 06:22:03;;;;;;;11.30;3.33;;;;;;;28.22;40.64;99846.69;5042186;28;20033;-72
2022/06/19 06:24:30;;;;;;;8.95;3.00;;;;;;;28.35;40.18;99841.84;5035919;28;20073;-73
2022/06/19 06:26:55;;;;;;;9.15;3.08;;;;;;;28.47;39.75;99834.44;5038492;28;20065;-72
2022/06/19 06:29:21;;;;;;;10.27;3.25;;;;;;;28.52;39.58;99839.47;5040920;28;20060;-72
2022/06/19 06:31:47;;;;;;;11.63;3.13;;;;;;;28.59;39.77;99832.47;5041353;28;20037;-72
2022/06/19 06:34:12;;;;;;;9.20;3.45;;;;;;;28.65;39.43;99823.75;5040356;28;20041;-72
2022/06/19 06:36:37;;;;;;;10.07;3.15;;;;;;;28.80;39.85;99830.47;5042708;28;20068;-72
2022/06/19 06:39:03;;;;;;;9.23;3.03;;;;;;;28.82;38.71;99831.19;5038384;28;20064;-72
2022/06/19 06:41:29;;;;;;;9.95;3.75;;;;;;;28.84;38.72;99831.88;5041582;28;20033;-72
2022/06/19 06:43:54;;;;;;;11.18;3.90;;;;;;;28.86;38.84;99833.63;5040270;28;20041;-72
2022/06/19 06:46:23;;;;;;;9.82;3.20;;;;;;;28.96;38.77;99823.59;5040993;28;20036;-72
2022/06/19 06:48:54;;;;;;;9.43;3.13;;;;;;;29.18;38.36;99823.28;5042129;28;20033;-72
2022/06/19 06:51:25;;;;;;;11.65;3.15;;;;;;;29.37;37.83;99814.25;5035664;28;20049;-72
2022/06/19 06:53:51;;;;;;;11.43;3.20;;;;;;;29.43;38.34;99808.22;5040977;28;20071;-72
2022/06/19 06:56:17;;;;;;;14.18;2.92;;;;;;;29.57;37.95;99809.59;5041702;28;20644;-72
2022/06/19 06:58:43;;;;;;;10.73;3.25;;;;;;;29.63;37.19;99806.28;5036475;28;20025;-72
2022/06/19 07:01:20;;;;;;;12.50;3.60;;;;;;;29.75;37.11;99803.41;5042066;28;20064;-72
2022/06/19 07:03:49;;;;;;;10.35;3.20;;;;;;;29.84;37.12;99797.91;5041309;28;20124;-72
2022/06/19 07:06:14;;;;;;;9.85;3.15;;;;;;;29.93;36.86;99788.84;5039663;28;20494;-72
2022/06/19 07:08:41;;;;;;;10.23;2.88;;;;;;;30.04;36.45;99787.75;5041674;28;20048;-73
2022/06/19 07:11:08;;;;;;;10.32;3.10;;;;;;;29.97;36.11;99781.22;5045460;28;20072;-72
2022/06/19 07:13:34;;;;;;;8.35;3.03;;;;;;;30.06;35.87;99771.28;5044209;28;20025;-72
2022/06/19 07:15:59;;;;;;;11.80;3.08;;;;;;;30.20;36.13;99772.63;5044845;28;20545;-72
2022/06/19 07:18:24;;;;;;;15.43;3.17;;;;;;;30.30;36.33;99762.56;5045698;28;20527;-72
2022/06/19 07:20:50;;;;;;;10.13;2.90;;;;;;;30.40;35.14;99768.78;5042973;28;20045;-72
2022/06/19 07:23:15;;;;;;;7.80;2.63;;;;;;;30.47;34.92;99761.72;5045777;28;20095;-72
2022/06/19 07:25:40;;;;;;;9.25;2.53;;;;;;;30.65;34.51;99758.09;5043356;28;20045;-72
2022/06/19 07:28:06;;;;;;;9.75;2.42;;;;;;;30.85;34.51;99747.91;5044977;28;20033;-72
2022/06/19 07:30:31;;;;;;;9.05;2.47;;;;;;;30.89;33.83;99747.44;5044626;28;20041;-72
2022/06/19 07:32:57;;;;;;;9.55;3.00;;;;;;;31.01;33.65;99735.25;5041990;28;20044;-72
2022/06/19 07:35:23;;;;;;;10.18;2.70;;;;;;;31.11;33.25;99737.00;5045571;28;20032;-72
2022/06/19 07:37:51;;;;;;;9.50;2.78;;;;;;;31.19;33.42;99737.06;5042496;28;20473;-72
2022/06/19 07:40:19;;;;;;;8.48;2.25;;;;;;;31.29;33.04;99742.41;5045462;28;20033;-72
2022/06/19 07:42:45;;;;;;;9.57;3.47;;;;;;;31.31;32.83;99741.22;5043009;28;20033;-72
2022/06/19 07:45:12;;;;;;;7.85;2.55;;;;;;;31.30;32.38;99731.31;5043514;28;20096;-72
2022/06/19 07:50:22;;;;;;;11.63;3.47;;;;;;;31.44;32.16;99727.19;5042996;28;20040;-73
2022/06/19 07:52:49;;;;;;;9.57;2.78;;;;;;;31.55;31.95;99726.88;5042121;28;20083;-72
2022/06/19 07:55:17;;;;;;;8.05;2.80;;;;;;;31.54;32.17;99729.75;5045706;28;20040;-72
2022/06/19 07:57:43;;;;;;;8.40;2.97;;;;;;;31.65;32.06;99732.22;5039012;28;20076;-72
2022/06/19 08:00:12;;;;;;;11.25;3.30;;;;;;;31.56;31.53;99725.00;5041841;28;20068;-72
2022/06/19 08:02:37;;;;;;;9.70;2.72;;;;;;;31.79;31.87;99725.25;5042971;28;20033;-72
2022/06/19 08:05:05;;;;;;;11.75;3.45;;;;;;;31.80;31.32;99711.44;5042301;28;20484;-72
2022/06/19 08:07:30;;;;;;;7.57;2.88;;;;;;;31.90;31.40;99713.19;5038580;28;20420;-73
2022/06/19 08:09:55;;;;;;;12.40;3.15;;;;;;;31.85;30.56;99713.66;5043797;28;20036;-72
2022/06/19 08:12:22;;;;;;;10.57;3.00;;;;;;;31.96;30.71;99715.25;5042761;28;20056;-72
2022/06/19 08:14:48;;;;;;;11.43;2.78;;;;;;;32.03;30.90;99711.69;5043304;28;20040;-72
2022/06/19 08:17:13;;;;;;;9.25;3.22;;;;;;;32.16;30.68;99705.75;5041539;28;20033;-73
2022/06/19 08:19:38;;;;;;;12.40;2.60;;;;;;;32.33;30.01;99700.28;5036842;28;20047;-73
2022/06/19 08:22:04;;;;;;;17.17;2.70;;;;;;;32.36;30.30;99700.81;5037476;28;20051;-72
2022/06/19 08:24:29;;;;;;;10.05;3.00;;;;;;;32.31;30.18;99705.94;5044535;28;20107;-72
2022/06/19 08:27:01;;;;;;;11.98;2.72;;;;;;;32.48;30.41;99704.06;5042940;28;20044;-72
2022/06/19 08:29:27;;;;;;;10.82;2.92;;;;;;;32.49;30.21;99695.72;5041000;28;20128;-72
2022/06/19 08:31:52;;;;;;;9.15;2.83;;;;;;;32.63;29.84;99688.72;5044415;28;20175;-73
2022/06/19 08:34:17;;;;;;;14.23;2.88;;;;;;;32.71;29.45;99696.88;5041499;28;20069;-72
2022/06/19 08:36:43;;;;;;;13.45;3.25;;;;;;;32.69;29.17;99693.47;5044640;28;20106;-72
2022/06/19 08:39:12;;;;;;;9.07;2.90;;;;;;;32.81;29.13;99677.59;5042643;28;20069;-72
2022/06/19 08:42:13;;;;;;;8.10;2.40;;;;;;;32.95;28.78;99681.47;5037892;28;20400;-72
2022/06/19 08:44:45;;;;;;;12.77;2.85;;;;;;;33.04;28.74;99665.94;5037373;28;20044;-72
2022/06/19 08:47:35;;;;;;;14.95;2.83;;;;;;;33.30;28.30;99682.06;5043261;28;20063;-73
2022/06/19 08:50:23;;;;;;;11.18;2.75;;;;;;;33.36;28.00;99692.31;5040865;28;20033;-73
2022/06/19 08:53:21;;;;;;;16.15;3.65;;;;;;;33.42;26.66;99677.06;5039547;28;20048;-73
2022/06/19 08:55:55;;;;;;;14.68;3.15;;;;;;;33.56;26.62;99685.44;5042765;28;20451;-72
2022/06/19 08:58:56;;;;;;;11.73;2.80;;;;;;;33.66;26.70;99678.88;5038079;28;20033;-73
2022/06/19 09:01:32;;;;;;;10.98;2.88;;;;;;;33.94;25.61;99666.38;5040937;28;20092;-73
2022/06/19 09:07:35;;;;;;;16.67;3.65;;;;;;;34.15;23.68;99668.47;5041331;28;20037;-73
2022/06/19 09:10:11;;;;;;;16.38;3.88;;;;;;;34.40;23.93;99658.19;5041015;28;20034;-73
2022/06/19 09:13:09;;;;;;;19.58;3.72;;;;;;;34.39;23.41;99659.19;5041800;28;20029;-73
2022/06/19 09:15:56;;;;;;;14.90;3.17;;;;;;;34.53;23.03;99663.00;5042886;28;20044;-73
2022/06/19 09:18:44;;;;;;;16.30;3.35;;;;;;;34.62;22.94;99650.13;5042140;28;20063;-73
2022/06/19 09:21:41;;;;;;;13.07;3.70;;;;;;;34.78;22.84;99655.44;5041598;28;20891;-73
2022/06/19 09:24:25;;;;;;;13.38;3.10;;;;;;;34.73;22.88;99649.66;5043493;28;20488;-72
2022/06/19 09:26:57;;;;;;;10.30;2.67;;;;;;;34.83;23.17;99647.50;5043525;28;20048;-73
2022/06/19 09:29:31;;;;;;;22.48;4.20;;;;;;;34.98;22.57;99646.63;5039565;28;20124;-72
2022/06/19 09:32:22;;;;;;;16.10;3.45;;;;;;;34.98;22.75;99643.88;5041190;28;20102;-73
2022/06/19 09:35:05;;;;;;;;;;;;;;;35.01;22.76;99641.63;5041842;28;20028;-73
2022/06/19 09:37:50;;;;;;;14.60;3.50;;;;;;;35.24;21.92;99619.63;5039676;28;19984;-73
2022/06/19 09:40:32;;;;;;;14.07;3.25;;;;;;;35.25;21.96;99629.53;5038600;28;20056;-72
2022/06/19 09:43:22;;;;;;;16.90;3.35;;;;;;;35.25;21.83;99640.50;5035528;28;20040;-73
2022/06/19 09:46:20;;;;;;;13.10;3.45;;;;;;;35.37;21.58;99627.16;5036615;28;20415;-72
2022/06/19 09:49:02;;;;;;;18.75;4.07;;;;;;;35.42;21.34;99623.81;5038695;28;20041;-72
2022/06/19 09:51:33;;;;;;;16.08;3.63;;;;;;;35.59;21.98;99625.34;5035980;28;20049;-73
2022/06/19 09:54:08;;;;;;;13.35;3.05;;;;;;;35.58;22.10;99612.69;5042263;28;20398;-73
2022/06/19 09:56:50;;;;;;;15.73;4.00;;;;;;;35.59;21.59;99619.84;5043495;28;20041;-73
2022/06/19 09:59:22;;;;;;;13.63;3.67;;;;;;;35.71;21.44;99607.31;5042215;28;20024;-72
2022/06/19 10:01:56;;;;;;;13.20;3.67;;;;;;;35.74;21.56;99606.94;5033572;28;20048;-73
2022/06/19 10:04:31;;;;;;;15.55;3.80;;;;;;;35.70;21.47;99600.13;5040318;28;20040;-73
2022/06/19 10:07:00;;;;;;;16.13;2.90;;;;;;;35.82;21.72;99597.72;5043175;28;20041;-73
2022/06/19 10:09:47;;;;;;;15.45;3.83;;;;;;;35.79;21.85;99595.38;5040977;28;20451;-73
2022/06/19 10:12:25;;;;;;;16.95;3.95;;;;;;;35.90;21.37;99596.75;5036723;28;20034;-73
2022/06/19 10:14:52;;;;;;;12.70;3.67;;;;;;;36.05;21.17;99583.75;5035372;28;20048;-73
2022/06/19 10:17:30;;;;;;;16.58;3.80;;;;;;;36.09;21.46;99582.38;5039535;28;20064;-73
2022/06/19 10:20:10;;;;;;;13.00;3.50;;;;;;;36.32;21.32;99586.78;5040906;28;20037;-73
2022/06/19 10:22:45;;;;;;;12.80;3.40;;;;;;;36.38;21.48;99570.34;5036976;28;20116;-73
2022/06/19 10:25:25;;;;;;;18.67;3.70;;;;;;;36.32;21.06;99567.56;5038938;28;20052;-73
2022/06/19 10:28:28;;;;;;;15.90;4.15;;;;;;;36.27;21.27;99561.81;5037708;28;20034;-73
2022/06/19 10:31:04;;;;;;;18.10;3.95;;;;;;;36.39;20.98;99546.44;5041971;28;20048;-73
2022/06/19 10:34:01;;;;;;;22.35;3.47;;;;;;;36.41;21.17;99536.94;5038419;28;20415;-73
2022/06/19 10:36:42;;;;;;;22.10;3.95;;;;;;;36.40;21.03;99550.91;5039687;28;20045;-73
2022/06/19 10:39:32;;;;;;;13.35;3.13;;;;;;;36.54;20.87;99547.19;5038764;28;20462;-73
2022/06/19 10:42:05;;;;;;;14.77;3.92;;;;;;;36.74;20.79;99538.25;5038260;28;20419;-73
2022/06/19 10:44:56;;;;;;;14.25;3.60;;;;;;;37.04;21.30;99550.66;5039262;28;20072;-73
2022/06/19 10:47:35;;;;;;;;;;;;;;;37.06;21.06;99545.81;5058034;28;20048;-73
2022/06/19 10:50:09;;;;;;;16.05;3.17;;;;;;;37.16;19.93;99547.34;5008264;28;19913;-73
2022/06/19 10:52:45;;;;;;;14.32;4.10;;;;;;;37.09;20.68;99554.72;5038719;28;20041;-73
2022/06/19 10:55:26;;;;;;;15.40;3.80;;;;;;;37.31;20.44;99539.78;5039421;28;20029;-73
2022/06/19 10:58:02;;;;;;;8.85;2.70;;;;;;;37.47;20.48;99542.16;5034959;28;20033;-73
2022/06/19 11:00:27;;;;;;;15.52;3.92;;;;;;;37.57;20.64;99546.41;5039862;28;20504;-73
2022/06/19 11:05:56;;;;;;;19.63;4.57;;;;;;;37.48;19.14;99524.56;5036881;28;20484;-72
2022/06/19 11:08:25;;;;;;;16.67;3.35;;;;;;;37.56;19.90;99525.47;5039154;28;20063;-73
2022/06/19 11:10:57;;;;;;;17.07;3.60;;;;;;;37.72;20.17;99514.03;5042561;28;20387;-73
2022/06/19 11:13:24;;;;;;;13.48;3.47;;;;;;;37.70;20.13;99502.38;5035420;28;20676;-73
2022/06/19 11:16:05;;;;;;;17.55;4.18;;;;;;;37.86;20.13;99490.09;5040969;28;20064;-73
2022/06/19 11:18:45;;;;;;;19.45;3.78;;;;;;;37.89;19.61;99498.81;5036331;28;20465;-73
2022/06/19 11:21:18;;;;;;;17.63;3.85;;;;;;;37.91;19.18;99477.41;5039004;28;20237;-73
2022/06/19 11:23:44;;;;;;;16.88;3.47;;;;;;;38.12;19.97;99472.72;5032653;28;20045;-73
2022/06/19 11:26:14;;;;;;;20.52;4.10;;;;;;;38.29;18.97;99479.50;5040878;28;20140;-73
2022/06/19 11:28:54;;;;;;;13.13;4.55;;;;;;;38.23;18.71;99472.09;5041234;28;20047;-73
2022/06/19 11:31:24;;;;;;;19.85;4.00;;;;;;;38.22;19.55;99478.66;5037500;28;20064;-73
2022/06/19 11:33:57;;;;;;;14.15;4.05;;;;;;;38.35;18.83;99480.53;5039560;28;20037;-72
2022/06/19 11:36:27;;;;;;;12.05;3.20;;;;;;;38.72;19.55;99481.72;5036005;28;20091;-73
2022/06/19 11:38:54;;;;;;;14.13;3.97;;;;;;;39.04;18.64;99476.31;5040917;28;20029;-73
2022/06/19 11:41:22;;;;;;;12.63;4.43;;;;;;;38.99;17.86;99474.22;5040791;28;20052;-73
2022/06/19 11:44:17;;;;;;;12.35;3.42;;;;;;;39.38;18.79;99454.88;5038453;28;20033;-73
2022/06/19 11:46:54;;;;;;;18.50;4.22;;;;;;;39.63;17.75;99468.72;5034417;28;20038;-73
2022/06/19 11:49:37;;;;;;;14.25;3.30;;;;;;;39.69;17.81;99456.75;5039649;28;20124;-73
2022/06/19 11:52:16;;;;;;;14.18;3.50;;;;;;;39.99;17.88;99462.47;5052047;28;20064;-73